sensor_id;sensor_type;location;lat;lon;timestamp;pressure;altitude;pressure_sealevel;temperature;humidity
66176;BME280;52977;44.816;20.538;2023-01-29T00:02:21;100343.78;;;1.31;100.00
66176;BME280;52977;44.816;20.538;2023-01-29T00:04:47;100328.78;;;1.01;100.00
66176;BME280;52977;44.816;20.538;2023-01-29T00:07:13;100317.38;;;0.94;100.00
66176;BME280;52977;44.816;20.538;2023-01-29T00:09:39;100356.31;;;1.08;100.00
66176;BME280;52977;44.816;20.538;2023-01-29T00:12:05;100265.34;;;0.71;100.00
66176;BME280;52977;44.816;20.538;2023-01-29T00:14:33;100350.78;;;1.32;100.00
66176;BME280;52977;44.816;20.538;2023-01-29T00:17:00;100364.16;;;1.27;100.00
66176;BME280;52977;44.816;20.538;2023-01-29T00:19:26;100361.22;;;1.11;100.00
66176;BME280;52977;44.816;20.538;2023-01-29T00:21:54;100352.13;;;1.00;100.00
66176;BME280;52977;44.816;20.538;2023-01-29T00:24:20;100362.91;;;1.00;100.00
66176;BME280;52977;44.816;20.538;2023-01-29T00:26:47;100306.75;;;0.70;100.00
66176;BME280;52977;44.816;20.538;2023-01-29T00:29:15;100347.75;;;0.94;100.00
66176;BME280;52977;44.816;20.538;2023-01-29T00:31:43;100239.97;;;0.33;100.00
66176;BME280;52977;44.816;20.538;2023-01-29T00:34:10;100378.34;;;1.22;100.00
66176;BME280;52977;44.816;20.538;2023-01-29T00:36:36;100387.28;;;1.11;100.00
66176;BME280;52977;44.816;20.538;2023-01-29T00:39:02;100378.38;;;0.93;100.00
66176;BME280;52977;44.816;20.538;2023-01-29T00:41:36;100378.19;;;1.29;100.00
66176;BME280;52977;44.816;20.538;2023-01-29T00:44:20;100382.56;;;1.18;100.00
66176;BME280;52977;44.816;20.538;2023-01-29T00:47:04;100348.25;;;1.08;100.00
66176;BME280;52977;44.816;20.538;2023-01-29T00:49:50;100374.84;;;1.39;100.00
66176;BME280;52977;44.816;20.538;2023-01-29T00:52:16;100391.03;;;1.27;100.00
66176;BME280;52977;44.816;20.538;2023-01-29T00:54:49;100338.16;;;1.15;100.00
66176;BME280;52977;44.816;20.538;2023-01-29T00:57:15;100386.81;;;1.48;100.00
66176;BME280;52977;44.816;20.538;2023-01-29T00:59:41;100387.78;;;1.59;100.00
66176;BME280;52977;44.816;20.538;2023-01-29T01:02:07;100385.94;;;1.59;100.00
66176;BME280;52977;44.816;20.538;2023-01-29T01:04:51;100387.81;;;1.42;100.00
66176;BME280;52977;44.816;20.538;2023-01-29T01:07:18;100286.63;;;0.73;100.00
66176;BME280;52977;44.816;20.538;2023-01-29T01:09:44;100388.53;;;1.37;100.00
66176;BME280;52977;44.816;20.538;2023-01-29T01:12:28;100394.00;;;1.42;100.00
66176;BME280;52977;44.816;20.538;2023-01-29T01:14:54;100352.22;;;1.06;100.00
66176;BME280;52977;44.816;20.538;2023-01-29T01:17:20;100376.06;;;1.31;100.00
66176;BME280;52977;44.816;20.538;2023-01-29T01:19:46;100402.00;;;1.54;100.00
66176;BME280;52977;44.816;20.538;2023-01-29T01:22:12;100281.91;;;0.80;100.00
66176;BME280;52977;44.816;20.538;2023-01-29T01:24:38;100401.84;;;1.61;100.00
66176;BME280;52977;44.816;20.538;2023-01-29T01:27:04;100350.06;;;1.19;100.00
66176;BME280;52977;44.816;20.538;2023-01-29T01:29:30;100361.84;;;1.01;100.00
66176;BME280;52977;44.816;20.538;2023-01-29T01:31:56;100398.06;;;1.28;100.00
66176;BME280;52977;44.816;20.538;2023-01-29T01:34:22;100362.63;;;0.85;100.00
66176;BME280;52977;44.816;20.538;2023-01-29T01:36:48;100301.41;;;0.58;100.00
66176;BME280;52977;44.816;20.538;2023-01-29T01:39:14;100366.16;;;1.02;100.00
66176;BME280;52977;44.816;20.538;2023-01-29T01:41:39;100388.94;;;1.29;100.00
66176;BME280;52977;44.816;20.538;2023-01-29T01:44:05;100369.03;;;1.13;100.00
66176;BME280;52977;44.816;20.538;2023-01-29T01:46:35;100390.63;;;1.18;100.00
66176;BME280;52977;44.816;20.538;2023-01-29T01:49:19;100384.22;;;1.19;100.00
66176;BME280;52977;44.816;20.538;2023-01-29T01:51:49;100365.28;;;1.14;100.00
66176;BME280;52977;44.816;20.538;2023-01-29T01:54:24;100287.94;;;0.41;100.00
66176;BME280;52977;44.816;20.538;2023-01-29T01:57:00;100388.59;;;0.79;100.00
66176;BME280;52977;44.816;20.538;2023-01-29T01:59:37;100390.63;;;1.01;100.00
66176;BME280;52977;44.816;20.538;2023-01-29T02:02:05;100382.03;;;0.87;100.00
66176;BME280;52977;44.816;20.538;2023-01-29T02:04:49;100336.22;;;0.82;100.00
66176;BME280;52977;44.816;20.538;2023-01-29T02:07:35;100388.03;;;1.23;100.00
66176;BME280;52977;44.816;20.538;2023-01-29T02:10:23;100369.91;;;1.01;100.00
66176;BME280;52977;44.816;20.538;2023-01-29T02:12:50;100398.06;;;1.28;100.00
66176;BME280;52977;44.816;20.538;2023-01-29T02:15:15;100403.34;;;1.23;100.00
66176;BME280;52977;44.816;20.538;2023-01-29T02:17:41;100333.88;;;0.68;100.00
66176;BME280;52977;44.816;20.538;2023-01-29T02:20:29;100388.94;;;1.29;100.00
66176;BME280;52977;44.816;20.538;2023-01-29T02:29:02;100336.56;;;0.85;100.00
66176;BME280;52977;44.816;20.538;2023-01-29T02:32:00;100305.50;;;0.61;100.00
66176;BME280;52977;44.816;20.538;2023-01-29T02:37:23;100393.34;;;1.35;100.00
66176;BME280;52977;44.816;20.538;2023-01-29T02:40:11;100346.19;;;0.98;100.00
66176;BME280;52977;44.816;20.538;2023-01-29T02:48:42;100396.41;;;1.10;100.00
66176;BME280;52977;44.816;20.538;2023-01-29T02:51:31;100421.63;;;1.21;100.00
66176;BME280;52977;44.816;20.538;2023-01-29T02:54:05;100420.38;;;1.11;100.00
66176;BME280;52977;44.816;20.538;2023-01-29T02:56:45;100358.59;;;0.71;100.00
66176;BME280;52977;44.816;20.538;2023-01-29T02:59:17;100424.69;;;1.12;100.00
66176;BME280;52977;44.816;20.538;2023-01-29T03:01:52;100413.34;;;1.10;100.00
66176;BME280;52977;44.816;20.538;2023-01-29T03:04:25;100351.75;;;0.63;100.00
66176;BME280;52977;44.816;20.538;2023-01-29T03:07:25;100411.75;;;1.09;100.00
66176;BME280;52977;44.816;20.538;2023-01-29T03:12:46;100406.38;;;1.09;100.00
66176;BME280;52977;44.816;20.538;2023-01-29T03:15:20;100412.66;;;1.15;100.00
66176;BME280;52977;44.816;20.538;2023-01-29T03:18:19;100417.69;;;1.11;100.00
66176;BME280;52977;44.816;20.538;2023-01-29T03:20:53;100417.41;;;0.96;100.00
66176;BME280;52977;44.816;20.538;2023-01-29T03:23:28;100419.34;;;1.00;100.00
66176;BME280;52977;44.816;20.538;2023-01-29T03:26:15;100430.13;;;1.00;100.00
66176;BME280;52977;44.816;20.538;2023-01-29T03:29:02;100429.31;;;1.00;100.00
66176;BME280;52977;44.816;20.538;2023-01-29T03:31:51;100418.66;;;1.05;100.00
66176;BME280;52977;44.816;20.538;2023-01-29T03:34:30;100419.28;;;0.95;100.00
66176;BME280;52977;44.816;20.538;2023-01-29T03:37:38;100422.81;;;1.13;100.00
66176;BME280;52977;44.816;20.538;2023-01-29T03:40:07;100450.63;;;1.18;100.00
66176;BME280;52977;44.816;20.538;2023-01-29T03:43:20;100423.31;;;1.10;100.00
66176;BME280;52977;44.816;20.538;2023-01-29T03:48:28;100423.41;;;0.86;100.00
66176;BME280;52977;44.816;20.538;2023-01-29T03:51:08;100422.84;;;0.84;100.00
66176;BME280;52977;44.816;20.538;2023-01-29T03:58:42;100435.91;;;0.92;100.00
66176;BME280;52977;44.816;20.538;2023-01-29T04:01:31;100430.94;;;1.01;100.00
66176;BME280;52977;44.816;20.538;2023-01-29T04:04:10;100385.63;;;0.64;100.00
66176;BME280;52977;44.816;20.538;2023-01-29T04:06:42;100431.34;;;0.81;100.00
66176;BME280;52977;44.816;20.538;2023-01-29T04:09:22;100433.78;;;0.94;100.00
66176;BME280;52977;44.816;20.538;2023-01-29T04:12:02;100425.16;;;0.92;100.00
66176;BME280;52977;44.816;20.538;2023-01-29T04:14:30;100433.09;;;1.16;100.00
66176;BME280;52977;44.816;20.538;2023-01-29T04:17:07;100435.06;;;1.21;100.00
66176;BME280;52977;44.816;20.538;2023-01-29T04:19:43;100410.44;;;1.12;100.00
66176;BME280;52977;44.816;20.538;2023-01-29T04:22:17;100430.59;;;1.26;100.00
66176;BME280;52977;44.816;20.538;2023-01-29T04:24:45;100381.63;;;0.78;100.00
66176;BME280;52977;44.816;20.538;2023-01-29T04:27:27;100440.84;;;1.12;100.00
66176;BME280;52977;44.816;20.538;2023-01-29T04:38:36;100441.06;;;1.11;100.00
66176;BME280;52977;44.816;20.538;2023-01-29T04:41:21;100446.69;;;1.09;100.00
66176;BME280;52977;44.816;20.538;2023-01-29T04:44:15;100445.63;;;1.10;100.00
66176;BME280;52977;44.816;20.538;2023-01-29T04:52:50;100455.53;;;1.22;100.00
66176;BME280;52977;44.816;20.538;2023-01-29T04:58:13;100400.34;;;0.61;100.00
66176;BME280;52977;44.816;20.538;2023-01-29T05:00:42;100445.53;;;1.05;100.00
66176;BME280;52977;44.816;20.538;2023-01-29T05:03:13;100418.84;;;0.87;100.00
66176;BME280;52977;44.816;20.538;2023-01-29T05:05:42;100441.34;;;0.97;100.00
66176;BME280;52977;44.816;20.538;2023-01-29T05:08:11;100416.06;;;0.81;100.00
66176;BME280;52977;44.816;20.538;2023-01-29T05:10:38;100428.28;;;0.89;100.00
66176;BME280;52977;44.816;20.538;2023-01-29T05:13:08;100357.22;;;0.39;100.00
66176;BME280;52977;44.816;20.538;2023-01-29T05:15:43;100417.53;;;0.60;100.00
66176;BME280;52977;44.816;20.538;2023-01-29T05:18:11;100460.25;;;0.74;100.00
66176;BME280;52977;44.816;20.538;2023-01-29T05:20:39;100478.28;;;1.02;100.00
66176;BME280;52977;44.816;20.538;2023-01-29T05:23:15;100468.06;;;0.87;100.00
66176;BME280;52977;44.816;20.538;2023-01-29T05:25:41;100465.31;;;0.70;100.00
66176;BME280;52977;44.816;20.538;2023-01-29T05:28:08;100402.78;;;0.34;100.00
66176;BME280;52977;44.816;20.538;2023-01-29T05:30:42;100468.78;;;0.71;100.00
66176;BME280;52977;44.816;20.538;2023-01-29T05:33:28;100483.25;;;0.81;100.00
66176;BME280;52977;44.816;20.538;2023-01-29T05:35:55;100481.88;;;0.79;100.00
66176;BME280;52977;44.816;20.538;2023-01-29T05:38:22;100495.44;;;0.72;100.00
66176;BME280;52977;44.816;20.538;2023-01-29T05:40:49;100436.84;;;0.33;100.00
66176;BME280;52977;44.816;20.538;2023-01-29T05:43:24;100440.00;;;0.42;100.00
66176;BME280;52977;44.816;20.538;2023-01-29T05:45:53;100489.94;;;0.67;100.00
66176;BME280;52977;44.816;20.538;2023-01-29T05:48:20;100488.22;;;0.61;100.00
66176;BME280;52977;44.816;20.538;2023-01-29T05:50:45;100496.81;;;0.87;100.00
66176;BME280;52977;44.816;20.538;2023-01-29T05:53:11;100465.44;;;0.63;100.00
66176;BME280;52977;44.816;20.538;2023-01-29T05:55:36;100489.50;;;0.70;100.00
66176;BME280;52977;44.816;20.538;2023-01-29T05:58:02;100510.75;;;0.72;100.00
66176;BME280;52977;44.816;20.538;2023-01-29T06:00:27;100476.31;;;0.57;100.00
66176;BME280;52977;44.816;20.538;2023-01-29T06:02:53;100457.06;;;0.36;100.00
66176;BME280;52977;44.816;20.538;2023-01-29T06:05:19;100410.25;;;0.08;100.00
66176;BME280;52977;44.816;20.538;2023-01-29T06:07:44;100485.88;;;0.64;100.00
66176;BME280;52977;44.816;20.538;2023-01-29T06:10:13;100516.69;;;0.85;100.00
66176;BME280;52977;44.816;20.538;2023-01-29T06:12:39;100474.81;;;0.49;100.00
66176;BME280;52977;44.816;20.538;2023-01-29T06:15:05;100513.19;;;0.73;100.00
66176;BME280;52977;44.816;20.538;2023-01-29T06:17:31;100514.84;;;0.62;100.00
66176;BME280;52977;44.816;20.538;2023-01-29T06:19:57;100488.44;;;0.47;100.00
66176;BME280;52977;44.816;20.538;2023-01-29T06:22:23;100514.34;;;0.77;100.00
66176;BME280;52977;44.816;20.538;2023-01-29T06:24:49;100524.16;;;0.83;100.00
66176;BME280;52977;44.816;20.538;2023-01-29T06:27:15;100519.97;;;0.76;100.00
66176;BME280;52977;44.816;20.538;2023-01-29T06:29:41;100470.25;;;0.49;100.00
66176;BME280;52977;44.816;20.538;2023-01-29T06:32:07;100493.81;;;0.59;100.00
66176;BME280;52977;44.816;20.538;2023-01-29T06:34:34;100533.84;;;0.84;100.00
66176;BME280;52977;44.816;20.538;2023-01-29T06:37:00;100534.34;;;0.81;100.00
66176;BME280;52977;44.816;20.538;2023-01-29T06:39:26;100516.25;;;0.77;100.00
66176;BME280;52977;44.816;20.538;2023-01-29T06:41:52;100529.75;;;0.82;100.00
66176;BME280;52977;44.816;20.538;2023-01-29T06:44:19;100529.06;;;0.87;100.00
66176;BME280;52977;44.816;20.538;2023-01-29T06:46:45;100539.78;;;0.98;100.00
66176;BME280;52977;44.816;20.538;2023-01-29T06:49:12;100443.56;;;0.60;100.00
66176;BME280;52977;44.816;20.538;2023-01-29T06:51:38;100552.06;;;0.94;100.00
66176;BME280;52977;44.816;20.538;2023-01-29T06:54:04;100559.19;;;1.00;100.00
66176;BME280;52977;44.816;20.538;2023-01-29T06:56:32;100490.78;;;0.67;100.00
66176;BME280;52977;44.816;20.538;2023-01-29T06:58:59;100512.75;;;0.64;100.00
66176;BME280;52977;44.816;20.538;2023-01-29T07:01:26;100566.22;;;0.90;100.00
66176;BME280;52977;44.816;20.538;2023-01-29T07:03:52;100560.06;;;0.77;100.00
66176;BME280;52977;44.816;20.538;2023-01-29T07:06:18;100562.38;;;0.85;100.00
66176;BME280;52977;44.816;20.538;2023-01-29T07:08:45;100567.50;;;0.75;100.00
66176;BME280;52977;44.816;20.538;2023-01-29T07:11:11;100562.97;;;0.76;100.00
66176;BME280;52977;44.816;20.538;2023-01-29T07:13:37;100567.75;;;0.85;100.00
66176;BME280;52977;44.816;20.538;2023-01-29T07:16:04;100524.53;;;0.51;100.00
66176;BME280;52977;44.816;20.538;2023-01-29T07:18:31;100559.38;;;0.70;100.00
66176;BME280;52977;44.816;20.538;2023-01-29T07:20:57;100573.94;;;0.98;100.00
66176;BME280;52977;44.816;20.538;2023-01-29T07:23:23;100534.00;;;0.66;100.00
66176;BME280;52977;44.816;20.538;2023-01-29T07:25:50;100571.28;;;0.74;100.00
66176;BME280;52977;44.816;20.538;2023-01-29T07:28:16;100445.28;;;0.13;100.00
66176;BME280;52977;44.816;20.538;2023-01-29T07:30:42;100568.31;;;0.88;100.00
66176;BME280;52977;44.816;20.538;2023-01-29T07:33:09;100588.19;;;0.98;100.00
66176;BME280;52977;44.816;20.538;2023-01-29T07:35:40;100584.44;;;0.99;100.00
66176;BME280;52977;44.816;20.538;2023-01-29T07:38:07;100563.88;;;0.93;100.00
66176;BME280;52977;44.816;20.538;2023-01-29T07:40:33;100511.94;;;0.40;100.00
66176;BME280;52977;44.816;20.538;2023-01-29T07:43:00;100520.94;;;0.34;100.00
66176;BME280;52977;44.816;20.538;2023-01-29T07:45:27;100565.75;;;0.81;100.00
66176;BME280;52977;44.816;20.538;2023-01-29T07:47:53;100524.81;;;0.38;100.00
66176;BME280;52977;44.816;20.538;2023-01-29T07:50:23;100577.66;;;0.85;100.00
66176;BME280;52977;44.816;20.538;2023-01-29T07:52:49;100581.19;;;0.74;100.00
66176;BME280;52977;44.816;20.538;2023-01-29T07:55:15;100563.78;;;0.76;100.00
66176;BME280;52977;44.816;20.538;2023-01-29T07:57:41;100552.00;;;0.65;100.00
66176;BME280;52977;44.816;20.538;2023-01-29T08:00:09;100590.66;;;0.76;100.00
66176;BME280;52977;44.816;20.538;2023-01-29T08:02:40;100557.72;;;0.57;100.00
66176;BME280;52977;44.816;20.538;2023-01-29T08:05:06;100433.50;;;-0.21;100.00
66176;BME280;52977;44.816;20.538;2023-01-29T08:07:33;100597.81;;;0.82;100.00
66176;BME280;52977;44.816;20.538;2023-01-29T08:09:59;100596.88;;;0.77;100.00
66176;BME280;52977;44.816;20.538;2023-01-29T08:12:25;100603.75;;;0.84;100.00
66176;BME280;52977;44.816;20.538;2023-01-29T08:14:52;100578.53;;;0.62;100.00
66176;BME280;52977;44.816;20.538;2023-01-29T08:17:17;100601.31;;;0.83;100.00
66176;BME280;52977;44.816;20.538;2023-01-29T08:19:43;100578.50;;;0.50;100.00
66176;BME280;52977;44.816;20.538;2023-01-29T08:22:09;100515.47;;;0.17;100.00
66176;BME280;52977;44.816;20.538;2023-01-29T08:24:35;100605.88;;;0.82;100.00
66176;BME280;52977;44.816;20.538;2023-01-29T08:27:00;100603.63;;;0.79;100.00
66176;BME280;52977;44.816;20.538;2023-01-29T08:29:26;100576.66;;;0.62;100.00
66176;BME280;52977;44.816;20.538;2023-01-29T08:31:51;100534.84;;;0.31;100.00
66176;BME280;52977;44.816;20.538;2023-01-29T08:34:17;100569.53;;;0.56;100.00
66176;BME280;52977;44.816;20.538;2023-01-29T08:36:43;100610.88;;;0.79;100.00
66176;BME280;52977;44.816;20.538;2023-01-29T08:39:10;100628.41;;;0.81;100.00
66176;BME280;52977;44.816;20.538;2023-01-29T08:41:36;100550.16;;;0.42;100.00
66176;BME280;52977;44.816;20.538;2023-01-29T08:44:02;100578.41;;;0.57;100.00
66176;BME280;52977;44.816;20.538;2023-01-29T08:46:29;100573.28;;;0.55;100.00
66176;BME280;52977;44.816;20.538;2023-01-29T08:48:55;100510.56;;;0.26;100.00
66176;BME280;52977;44.816;20.538;2023-01-29T08:51:21;100580.75;;;0.77;100.00
66176;BME280;52977;44.816;20.538;2023-01-29T08:53:46;100600.34;;;1.01;100.00
66176;BME280;52977;44.816;20.538;2023-01-29T08:56:13;100551.78;;;0.55;100.00
66176;BME280;52977;44.816;20.538;2023-01-29T08:58:42;100627.00;;;1.02;100.00
66176;BME280;52977;44.816;20.538;2023-01-29T09:01:10;100576.75;;;0.56;100.00
66176;BME280;52977;44.816;20.538;2023-01-29T09:03:39;100629.09;;;1.00;100.00
66176;BME280;52977;44.816;20.538;2023-01-29T09:06:09;100628.75;;;0.97;100.00
66176;BME280;52977;44.816;20.538;2023-01-29T09:08:36;100510.66;;;0.19;100.00
66176;BME280;52977;44.816;20.538;2023-01-29T09:11:03;100524.94;;;0.43;100.00
66176;BME280;52977;44.816;20.538;2023-01-29T09:13:29;100628.59;;;1.27;100.00
66176;BME280;52977;44.816;20.538;2023-01-29T09:16:00;100615.34;;;1.38;100.00
66176;BME280;52977;44.816;20.538;2023-01-29T09:18:27;100591.53;;;1.17;100.00
66176;BME280;52977;44.816;20.538;2023-01-29T09:20:54;100629.16;;;1.41;100.00
66176;BME280;52977;44.816;20.538;2023-01-29T09:23:20;100556.78;;;0.75;100.00
66176;BME280;52977;44.816;20.538;2023-01-29T09:25:47;100629.66;;;1.14;100.00
66176;BME280;52977;44.816;20.538;2023-01-29T09:28:13;100608.97;;;1.15;100.00
66176;BME280;52977;44.816;20.538;2023-01-29T09:30:39;100634.31;;;1.31;100.00
66176;BME280;52977;44.816;20.538;2023-01-29T09:33:06;100631.28;;;1.15;100.00
66176;BME280;52977;44.816;20.538;2023-01-29T09:35:33;100625.00;;;1.10;100.00
66176;BME280;52977;44.816;20.538;2023-01-29T09:37:59;100594.69;;;1.14;100.00
66176;BME280;52977;44.816;20.538;2023-01-29T09:40:33;100587.03;;;1.35;100.00
66176;BME280;52977;44.816;20.538;2023-01-29T09:43:03;100544.69;;;1.01;100.00
66176;BME280;52977;44.816;20.538;2023-01-29T09:45:31;100583.00;;;1.09;100.00
66176;BME280;52977;44.816;20.538;2023-01-29T09:47:59;100617.53;;;1.52;100.00
66176;BME280;52977;44.816;20.538;2023-01-29T09:50:42;100605.31;;;1.33;100.00
66176;BME280;52977;44.816;20.538;2023-01-29T09:53:17;100618.00;;;1.49;100.00
66176;BME280;52977;44.816;20.538;2023-01-29T09:55:49;100596.00;;;1.12;100.00
66176;BME280;52977;44.816;20.538;2023-01-29T10:01:35;100606.25;;;1.27;100.00
66176;BME280;52977;44.816;20.538;2023-01-29T10:06:52;100602.56;;;1.45;100.00
66176;BME280;52977;44.816;20.538;2023-01-29T10:18:59;100559.28;;;1.17;100.00
66176;BME280;52977;44.816;20.538;2023-01-29T10:24:25;100594.19;;;1.29;100.00
66176;BME280;52977;44.816;20.538;2023-01-29T10:26:54;100593.25;;;1.35;100.00
66176;BME280;52977;44.816;20.538;2023-01-29T10:29:20;100592.78;;;1.39;100.00
66176;BME280;52977;44.816;20.538;2023-01-29T10:31:51;100535.63;;;1.19;100.00
66176;BME280;52977;44.816;20.538;2023-01-29T10:34:22;100577.78;;;1.43;100.00
66176;BME280;52977;44.816;20.538;2023-01-29T10:36:50;100578.59;;;1.43;100.00
66176;BME280;52977;44.816;20.538;2023-01-29T10:39:18;100529.84;;;0.99;100.00
66176;BME280;52977;44.816;20.538;2023-01-29T10:44:37;100582.13;;;1.32;100.00
66176;BME280;52977;44.816;20.538;2023-01-29T10:58:20;100570.13;;;1.51;100.00
66176;BME280;52977;44.816;20.538;2023-01-29T11:00:50;100515.09;;;1.13;100.00
66176;BME280;52977;44.816;20.538;2023-01-29T11:03:21;100491.75;;;1.02;100.00
66176;BME280;52977;44.816;20.538;2023-01-29T11:05:54;100556.94;;;1.50;100.00
66176;BME280;52977;44.816;20.538;2023-01-29T11:08:24;100551.81;;;1.36;100.00
66176;BME280;52977;44.816;20.538;2023-01-29T11:11:12;100497.59;;;1.28;100.00
66176;BME280;52977;44.816;20.538;2023-01-29T11:14:00;100421.09;;;1.07;100.00
66176;BME280;52977;44.816;20.538;2023-01-29T11:16:47;100567.50;;;1.85;100.00
66176;BME280;52977;44.816;20.538;2023-01-29T11:19:15;100556.84;;;1.62;100.00
66176;BME280;52977;44.816;20.538;2023-01-29T11:21:59;100530.50;;;1.47;100.00
66176;BME280;52977;44.816;20.538;2023-01-29T11:24:26;100496.81;;;1.15;100.00
66176;BME280;52977;44.816;20.538;2023-01-29T11:26:54;100485.22;;;0.98;100.00
66176;BME280;52977;44.816;20.538;2023-01-29T11:29:46;100555.78;;;1.46;100.00
66176;BME280;52977;44.816;20.538;2023-01-29T11:32:27;100532.34;;;1.46;100.00
66176;BME280;52977;44.816;20.538;2023-01-29T11:35:20;100549.41;;;1.52;100.00
66176;BME280;52977;44.816;20.538;2023-01-29T11:37:46;100475.38;;;0.92;100.00
66176;BME280;52977;44.816;20.538;2023-01-29T11:40:35;100561.19;;;1.34;100.00
66176;BME280;52977;44.816;20.538;2023-01-29T11:45:55;100557.69;;;1.33;100.00
66176;BME280;52977;44.816;20.538;2023-01-29T11:48:30;100560.97;;;1.35;100.00
66176;BME280;52977;44.816;20.538;2023-01-29T11:50:59;100551.53;;;1.21;100.00
66176;BME280;52977;44.816;20.538;2023-01-29T11:53:41;100558.97;;;1.31;100.00
66176;BME280;52977;44.816;20.538;2023-01-29T11:56:19;100542.50;;;1.27;100.00
66176;BME280;52977;44.816;20.538;2023-01-29T11:58:48;100558.94;;;1.43;99.81
66176;BME280;52977;44.816;20.538;2023-01-29T12:01:17;100512.66;;;1.00;99.82
66176;BME280;52977;44.816;20.538;2023-01-29T12:03:51;100441.25;;;0.51;100.00
66176;BME280;52977;44.816;20.538;2023-01-29T12:06:31;100556.47;;;1.12;100.00
66176;BME280;52977;44.816;20.538;2023-01-29T12:09:00;100570.69;;;1.25;100.00
66176;BME280;52977;44.816;20.538;2023-01-29T12:11:30;100556.28;;;1.31;100.00
66176;BME280;52977;44.816;20.538;2023-01-29T12:14:00;100556.41;;;1.24;100.00
66176;BME280;52977;44.816;20.538;2023-01-29T12:16:40;100550.81;;;1.26;100.00
66176;BME280;52977;44.816;20.538;2023-01-29T12:19:15;100552.66;;;1.37;100.00
66176;BME280;52977;44.816;20.538;2023-01-29T12:22:14;100550.38;;;1.46;100.00
66176;BME280;52977;44.816;20.538;2023-01-29T12:25:03;100546.16;;;1.50;100.00
66176;BME280;52977;44.816;20.538;2023-01-29T12:27:40;100546.16;;;1.50;100.00
66176;BME280;52977;44.816;20.538;2023-01-29T12:30:27;100548.03;;;1.49;100.00
66176;BME280;52977;44.816;20.538;2023-01-29T12:35:44;100546.31;;;1.43;100.00
66176;BME280;52977;44.816;20.538;2023-01-29T12:38:20;100507.91;;;0.90;100.00
66176;BME280;52977;44.816;20.538;2023-01-29T12:40:59;100462.25;;;0.78;100.00
66176;BME280;52977;44.816;20.538;2023-01-29T12:43:34;100491.25;;;1.05;100.00
66176;BME280;52977;44.816;20.538;2023-01-29T12:46:07;100553.19;;;1.51;100.00
66176;BME280;52977;44.816;20.538;2023-01-29T12:48:38;100551.47;;;1.62;100.00
66176;BME280;52977;44.816;20.538;2023-01-29T12:51:10;100560.03;;;1.59;100.00
66176;BME280;52977;44.816;20.538;2023-01-29T12:56:09;100525.44;;;1.50;100.00
66176;BME280;52977;44.816;20.538;2023-01-29T12:58:41;100552.63;;;1.66;100.00
66176;BME280;52977;44.816;20.538;2023-01-29T13:01:14;100515.25;;;1.24;100.00
66176;BME280;52977;44.816;20.538;2023-01-29T13:06:28;100544.03;;;1.52;100.00
66176;BME280;52977;44.816;20.538;2023-01-29T13:09:02;100555.03;;;1.50;100.00
66176;BME280;52977;44.816;20.538;2023-01-29T13:11:37;100553.50;;;1.54;100.00
66176;BME280;52977;44.816;20.538;2023-01-29T13:14:25;100558.72;;;1.44;100.00
66176;BME280;52977;44.816;20.538;2023-01-29T13:17:08;100555.53;;;1.47;100.00
66176;BME280;52977;44.816;20.538;2023-01-29T13:19:39;100556.44;;;1.53;100.00
66176;BME280;52977;44.816;20.538;2023-01-29T13:22:19;100542.75;;;1.54;99.52
66176;BME280;52977;44.816;20.538;2023-01-29T13:24:47;100493.81;;;1.12;100.00
66176;BME280;52977;44.816;20.538;2023-01-29T13:27:20;100551.16;;;1.58;99.87
66176;BME280;52977;44.816;20.538;2023-01-29T13:29:47;100534.53;;;1.32;98.86
66176;BME280;52977;44.816;20.538;2023-01-29T13:32:20;100517.84;;;1.18;100.00
66176;BME280;52977;44.816;20.538;2023-01-29T13:34:48;100537.84;;;1.23;100.00
66176;BME280;52977;44.816;20.538;2023-01-29T13:37:41;100537.56;;;1.36;100.00
66176;BME280;52977;44.816;20.538;2023-01-29T13:40:25;100507.94;;;1.19;100.00
66176;BME280;52977;44.816;20.538;2023-01-29T13:42:53;100550.81;;;1.54;100.00
66176;BME280;52977;44.816;20.538;2023-01-29T13:45:34;100550.03;;;1.42;100.00
66176;BME280;52977;44.816;20.538;2023-01-29T13:48:23;100506.81;;;1.32;99.65
66176;BME280;52977;44.816;20.538;2023-01-29T13:50:52;100541.91;;;1.37;99.90
66176;BME280;52977;44.816;20.538;2023-01-29T13:53:28;100445.63;;;0.81;100.00
66176;BME280;52977;44.816;20.538;2023-01-29T13:58:56;100547.31;;;1.54;100.00
66176;BME280;52977;44.816;20.538;2023-01-29T14:06:56;100566.53;;;1.46;99.52
66176;BME280;52977;44.816;20.538;2023-01-29T14:12:00;100503.31;;;1.02;99.66
66176;BME280;52977;44.816;20.538;2023-01-29T14:17:15;100559.03;;;1.48;99.56
66176;BME280;52977;44.816;20.538;2023-01-29T14:19:49;100496.50;;;1.12;99.25
66176;BME280;52977;44.816;20.538;2023-01-29T14:22:23;100582.97;;;1.61;97.27
66176;BME280;52977;44.816;20.538;2023-01-29T14:25:00;100559.84;;;1.48;98.50
66176;BME280;52977;44.816;20.538;2023-01-29T14:27:28;100566.41;;;1.52;98.51
66176;BME280;52977;44.816;20.538;2023-01-29T14:30:00;100579.59;;;1.54;100.00
66176;BME280;52977;44.816;20.538;2023-01-29T14:32:28;100577.66;;;1.49;100.00
66176;BME280;52977;44.816;20.538;2023-01-29T14:35:15;100570.31;;;1.62;100.00
66176;BME280;52977;44.816;20.538;2023-01-29T14:37:49;100558.03;;;1.37;100.00
66176;BME280;52977;44.816;20.538;2023-01-29T14:45:32;100570.03;;;1.75;100.00
66176;BME280;52977;44.816;20.538;2023-01-29T14:55:58;100568.53;;;1.67;100.00
66176;BME280;52977;44.816;20.538;2023-01-29T15:01:04;100526.56;;;1.38;100.00